Time;durP1;ratioP1;P1;durP2;ratioP2;P2;SDS_P1;SDS_P2;PMS_P1;PMS_P2;Temp;Humidity;BMP_temperature;BMP_pressure;BME280_temperature;BME280_humidity;BME280_pressure;Samples;Min_cycle;Max_cycle;Signal;HPM_P1;HPM_P2
2023/08/02 00:02:10;;;;;;;10.40;3.08;;;16.40;99.90;;;;;;4945110;28;20042;-65
2023/08/02 00:04:38;;;;;;;9.77;3.42;;;15.90;99.90;;;;;;4949658;28;20490;-65
2023/08/02 00:07:04;;;;;;;8.82;3.20;;;16.20;99.90;;;;;;4937679;28;20055;-64
2023/08/02 00:09:31;;;;;;;8.65;3.42;;;15.60;99.90;;;;;;4941191;28;20039;-65
2023/08/02 00:11:57;;;;;;;11.90;4.10;;;16.10;99.90;;;;;;4928286;29;20042;-65
2023/08/02 00:14:23;;;;;;;9.13;3.60;;;16.00;99.90;;;;;;4949846;28;20125;-65
2023/08/02 00:16:49;;;;;;;7.93;3.63;;;16.30;99.90;;;;;;4950497;28;20139;-65
2023/08/02 00:19:15;;;;;;;12.23;3.92;;;15.70;99.90;;;;;;4954697;28;20047;-65
2023/08/02 00:21:41;;;;;;;8.73;3.70;;;15.90;99.90;;;;;;4950210;28;20405;-65
2023/08/02 00:24:07;;;;;;;9.07;3.70;;;16.40;99.90;;;;;;4948425;28;20049;-65
2023/08/02 00:26:33;;;;;;;8.88;4.30;;;15.80;99.90;;;;;;4955402;28;20039;-65
2023/08/02 00:28:59;;;;;;;10.02;4.22;;;;;;;;;;4946696;28;20035;-66
2023/08/02 00:31:24;;;;;;;12.05;4.47;;;15.70;99.90;;;;;;4940530;28;20044;-65
2023/08/02 00:33:50;;;;;;;8.85;4.30;;;15.70;99.90;;;;;;4944626;28;20166;-65
2023/08/02 00:36:16;;;;;;;9.30;4.80;;;15.70;99.90;;;;;;4938800;28;20456;-65
2023/08/02 00:38:42;;;;;;;9.43;4.50;;;15.70;99.90;;;;;;4937332;28;20039;-65
2023/08/02 00:41:08;;;;;;;9.50;3.95;;;16.20;99.90;;;;;;4938043;28;20486;-64
2023/08/02 00:43:45;;;;;;;8.73;4.22;;;15.80;99.90;;;;;;4935941;28;20046;-65
2023/08/02 00:46:13;;;;;;;11.30;5.05;;;15.80;99.90;;;;;;4937782;28;20067;-65
2023/08/02 00:48:40;;;;;;;11.05;5.00;;;15.80;99.90;;;;;;4954010;28;20513;-65
2023/08/02 00:51:16;;;;;;;9.25;4.45;;;15.70;99.90;;;;;;4943199;28;20087;-65
2023/08/02 00:53:43;;;;;;;11.43;5.50;;;15.70;99.90;;;;;;4935327;28;20040;-66
2023/08/02 00:56:10;;;;;;;16.83;5.97;;;;;;;;;;4941658;28;20042;-65
2023/08/02 00:58:35;;;;;;;9.93;5.18;;;15.60;99.90;;;;;;4935290;28;20047;-65
2023/08/02 01:01:07;;;;;;;13.52;5.18;;;15.80;99.90;;;;;;4957948;28;20409;-66
2023/08/02 01:03:40;;;;;;;10.07;5.10;;;15.80;99.90;;;;;;4942465;28;20036;-65
2023/08/02 01:06:33;;;;;;;10.25;5.22;;;15.50;99.90;;;;;;4949098;28;20046;-66
2023/08/02 01:09:26;;;;;;;12.77;5.43;;;15.90;99.90;;;;;;4940123;28;20071;-65
2023/08/02 01:12:03;;;;;;;10.85;5.40;;;15.90;99.90;;;;;;4941872;28;20032;-65
2023/08/02 01:14:30;;;;;;;10.40;5.60;;;;;;;;;;4940869;28;20048;-66
2023/08/02 01:16:56;;;;;;;11.13;5.45;;;15.80;99.90;;;;;;4943644;28;20088;-64
2023/08/02 01:19:23;;;;;;;13.25;5.43;;;16.50;99.90;;;;;;4938628;28;20036;-66
2023/08/02 01:21:49;;;;;;;10.45;5.70;;;15.50;99.90;;;;;;4945152;28;20523;-66
2023/08/02 01:24:15;;;;;;;12.05;5.43;;;;;;;;;;4961424;28;20044;-65
2023/08/02 01:26:46;;;;;;;14.88;6.20;;;15.40;99.90;;;;;;4936078;28;20091;-66
2023/08/02 01:29:22;;;;;;;14.10;5.32;;;15.80;99.90;;;;;;4940667;28;20043;-65
2023/08/02 01:31:49;;;;;;;9.98;6.22;;;15.80;99.90;;;;;;4945472;28;20047;-66
2023/08/02 01:34:14;;;;;;;10.00;5.47;;;16.30;99.90;;;;;;4950918;28;20050;-63
2023/08/02 01:36:41;;;;;;;10.75;5.45;;;15.70;99.90;;;;;;4939675;28;20039;-65
2023/08/02 01:39:07;;;;;;;14.98;5.85;;;16.30;99.90;;;;;;4943662;28;20099;-64
2023/08/02 01:41:32;;;;;;;9.40;5.38;;;15.80;99.90;;;;;;4940382;28;20382;-65
2023/08/02 01:43:58;;;;;;;9.95;5.63;;;15.60;99.90;;;;;;4942510;28;20051;-67
2023/08/02 01:46:24;;;;;;;17.45;6.18;;;15.80;99.90;;;;;;4947785;28;20505;-65
2023/08/02 01:48:49;;;;;;;12.45;6.38;;;16.20;99.90;;;;;;4943520;28;20051;-64
2023/08/02 01:51:15;;;;;;;12.80;6.45;;;15.50;99.90;;;;;;4941291;28;20047;-66
2023/08/02 01:53:41;;;;;;;10.13;5.57;;;16.20;99.90;;;;;;4936479;28;20529;-65
2023/08/02 01:56:06;;;;;;;9.02;5.72;;;15.50;99.90;;;;;;4951693;28;20039;-65
2023/08/02 01:58:32;;;;;;;13.27;6.78;;;15.90;99.90;;;;;;4940314;28;20036;-64
2023/08/02 02:00:58;;;;;;;14.35;6.35;;;15.90;99.90;;;;;;4947925;28;20149;-64
2023/08/02 02:03:24;;;;;;;16.55;6.25;;;16.00;99.90;;;;;;4940825;28;20039;-66
2023/08/02 02:05:54;;;;;;;11.48;7.00;;;16.00;99.90;;;;;;4939292;28;20450;-65
2023/08/02 02:08:19;;;;;;;12.48;6.80;;;15.80;99.90;;;;;;4940497;28;20075;-65
2023/08/02 02:10:53;;;;;;;10.95;6.22;;;15.70;99.90;;;;;;4920864;28;20357;-65
2023/08/02 02:13:20;;;;;;;10.13;6.63;;;15.50;99.90;;;;;;4948000;28;20394;-66
2023/08/02 02:15:45;;;;;;;13.50;6.65;;;15.50;99.90;;;;;;4944121;28;20459;-65
2023/08/02 02:18:11;;;;;;;10.27;5.82;;;15.80;99.90;;;;;;4951963;28;20094;-65
2023/08/02 02:20:37;;;;;;;12.23;6.53;;;15.40;99.90;;;;;;4945213;28;20032;-64
2023/08/02 02:23:03;;;;;;;10.38;5.82;;;15.70;1.00;;;;;;4941086;28;20035;-65
2023/08/02 02:25:28;;;;;;;11.57;6.70;;;15.50;1.00;;;;;;4927485;28;20047;-66
2023/08/02 02:27:54;;;;;;;10.02;6.00;;;15.60;1.00;;;;;;4951090;28;20035;-66
2023/08/02 02:30:21;;;;;;;11.88;6.40;;;16.00;1.00;;;;;;4938054;28;20035;-65
2023/08/02 02:32:46;;;;;;;13.23;6.35;;;16.10;1.00;;;;;;4935644;28;20051;-66
2023/08/02 02:35:12;;;;;;;11.68;6.03;;;15.70;1.00;;;;;;4941145;28;20040;-65
2023/08/02 02:37:38;;;;;;;11.70;6.88;;;16.00;1.00;;;;;;4945236;28;20098;-65
2023/08/02 02:40:05;;;;;;;11.05;6.32;;;15.70;1.00;;;;;;4953706;28;20039;-64
2023/08/02 02:42:31;;;;;;;12.93;6.93;;;15.60;1.00;;;;;;4943111;28;20163;-65
2023/08/02 02:44:57;;;;;;;12.68;6.65;;;15.40;1.00;;;;;;4933137;28;20119;-66
2023/08/02 02:47:22;;;;;;;11.55;6.30;;;15.50;1.00;;;;;;4937353;28;20039;-63
2023/08/02 02:49:48;;;;;;;13.98;6.20;;;15.80;1.00;;;;;;4944020;28;20053;-66
2023/08/02 02:52:13;;;;;;;10.88;5.72;;;15.60;1.00;;;;;;4953395;28;20027;-65
2023/08/02 02:54:39;;;;;;;11.35;5.90;;;15.50;1.00;;;;;;4944697;28;20065;-66
2023/08/02 02:57:06;;;;;;;11.65;6.13;;;15.70;1.00;;;;;;4938657;28;20465;-64
2023/08/02 02:59:32;;;;;;;11.10;5.93;;;15.70;1.00;;;;;;4942151;28;20035;-64
2023/08/02 03:01:58;;;;;;;15.38;6.03;;;15.50;1.00;;;;;;4958083;28;20051;-65
2023/08/02 03:04:25;;;;;;;11.30;5.68;;;15.90;1.00;;;;;;4937822;28;20047;-65
2023/08/02 03:06:51;;;;;;;9.68;5.75;;;16.10;1.00;;;;;;4943311;28;20074;-65
2023/08/02 03:09:17;;;;;;;8.43;5.78;;;15.50;1.00;;;;;;4936158;28;20079;-66
2023/08/02 03:11:43;;;;;;;12.85;5.80;;;15.80;1.00;;;;;;4957102;28;20437;-65
2023/08/02 03:14:09;;;;;;;12.93;6.07;;;15.90;1.00;;;;;;4934061;28;20070;-65
2023/08/02 03:16:34;;;;;;;10.10;5.82;;;15.90;1.00;;;;;;4944090;28;20050;-64
2023/08/02 03:19:00;;;;;;;10.50;5.90;;;15.40;1.00;;;;;;4941311;28;20040;-63
2023/08/02 03:21:26;;;;;;;12.93;5.57;;;15.30;1.00;;;;;;4937210;28;20051;-64
2023/08/02 03:23:52;;;;;;;13.45;6.40;;;15.50;1.00;;;;;;4944774;28;20043;-65
2023/08/02 03:26:17;;;;;;;12.98;5.68;;;15.30;1.00;;;;;;4941605;28;20032;-64
2023/08/02 03:28:43;;;;;;;11.82;6.47;;;15.80;1.00;;;;;;4950885;28;20035;-65
2023/08/02 03:31:08;;;;;;;17.40;7.95;;;15.30;1.00;;;;;;4933839;28;20035;-64
2023/08/02 03:33:34;;;;;;;14.23;6.05;;;15.40;1.00;;;;;;4936985;28;20585;-65
2023/08/02 03:36:00;;;;;;;14.57;6.30;;;15.40;1.00;;;;;;4939632;28;20454;-65
2023/08/02 03:38:26;;;;;;;13.10;6.07;;;15.40;1.00;;;;;;4938910;28;20121;-65
2023/08/02 03:40:52;;;;;;;16.33;6.03;;;15.90;1.00;;;;;;4950309;28;20046;-64
2023/08/02 03:43:17;;;;;;;13.50;6.47;;;15.70;1.00;;;;;;4943843;28;20457;-64
2023/08/02 03:45:43;;;;;;;19.73;6.93;;;15.40;1.00;;;;;;4949815;28;20079;-65
2023/08/02 03:48:09;;;;;;;13.18;5.85;;;15.20;1.00;;;;;;4950092;28;20050;-65
2023/08/02 03:50:34;;;;;;;18.98;6.53;;;15.60;1.00;;;;;;4939202;28;20035;-66
2023/08/02 03:53:00;;;;;;;15.90;6.25;;;15.50;1.00;;;;;;4943231;28;20044;-64
2023/08/02 03:55:26;;;;;;;15.80;6.22;;;15.60;1.00;;;;;;4936713;28;20039;-63
2023/08/02 03:57:52;;;;;;;12.23;6.53;;;15.80;1.00;;;;;;4942443;28;20123;-65
2023/08/02 04:00:17;;;;;;;15.27;5.78;;;15.60;1.00;;;;;;4933444;28;20077;-65
2023/08/02 04:02:43;;;;;;;18.30;6.72;;;15.50;1.00;;;;;;4951322;28;20091;-65
2023/08/02 04:05:10;;;;;;;12.45;5.97;;;15.20;1.00;;;;;;4940550;28;20047;-65
2023/08/02 04:07:35;;;;;;;14.77;6.63;;;16.00;1.00;;;;;;4941902;28;20078;-65
2023/08/02 04:10:01;;;;;;;18.55;6.18;;;15.90;1.00;;;;;;4940095;28;20410;-64
2023/08/02 04:12:27;;;;;;;17.52;7.25;;;15.70;1.00;;;;;;4934540;28;20482;-64
2023/08/02 04:14:54;;;;;;;17.70;6.95;;;15.50;1.00;;;;;;4944408;28;20110;-65
2023/08/02 04:17:20;;;;;;;16.65;6.80;;;16.20;1.00;;;;;;4950902;28;20421;-64
2023/08/02 04:19:45;;;;;;;19.42;7.32;;;15.60;1.00;;;;;;4948332;28;20039;-64
2023/08/02 04:22:11;;;;;;;18.15;7.88;;;15.60;1.00;;;;;;4940557;28;20070;-65
2023/08/02 04:24:37;;;;;;;14.73;7.10;;;;;;;;;;4940427;28;20043;-65
2023/08/02 04:27:03;;;;;;;25.05;7.38;;;15.80;99.90;;;;;;4939777;28;20040;-65
2023/08/02 04:29:29;;;;;;;15.60;6.82;;;15.40;99.90;;;;;;4934248;28;20482;-65
2023/08/02 04:31:55;;;;;;;13.60;6.35;;;16.10;99.90;;;;;;4944017;28;20040;-65
2023/08/02 04:34:21;;;;;;;18.38;7.38;;;15.60;99.90;;;;;;4943817;28;20039;-64
2023/08/02 04:36:46;;;;;;;20.67;6.65;;;15.90;99.90;;;;;;4943885;28;20046;-64
2023/08/02 04:39:12;;;;;;;20.65;7.50;;;15.50;99.90;;;;;;4942938;28;20059;-64
2023/08/02 04:41:38;;;;;;;16.02;7.03;;;15.60;99.90;;;;;;4937459;28;20044;-64
2023/08/02 04:44:03;;;;;;;14.77;6.38;;;15.60;99.90;;;;;;4940659;28;20093;-64
2023/08/02 04:46:31;;;;;;;17.60;6.97;;;15.80;99.90;;;;;;4936675;28;20055;-64
2023/08/02 04:48:56;;;;;;;14.90;6.43;;;15.80;99.90;;;;;;4942079;28;20110;-65
2023/08/02 04:51:22;;;;;;;13.63;6.75;;;;;;;;;;4937129;28;20059;-65
2023/08/02 04:53:48;;;;;;;18.60;6.93;;;15.60;99.90;;;;;;4946849;28;20046;-65
2023/08/02 04:56:15;;;;;;;22.63;7.82;;;15.90;99.90;;;;;;4939518;28;20035;-65
2023/08/02 04:58:41;;;;;;;15.13;7.20;;;15.50;99.90;;;;;;4942717;28;20498;-65
2023/08/02 05:01:07;;;;;;;17.15;6.95;;;15.60;99.90;;;;;;4938095;28;20051;-64
2023/08/02 05:03:33;;;;;;;15.65;7.15;;;15.60;99.90;;;;;;4941742;28;20112;-66
2023/08/02 05:06:00;;;;;;;15.52;6.35;;;15.20;99.90;;;;;;4946798;28;20050;-65
2023/08/02 05:08:29;;;;;;;17.05;8.48;;;15.80;99.90;;;;;;4946365;28;20604;-66
2023/08/02 05:10:55;;;;;;;20.85;7.70;;;15.90;99.90;;;;;;4959296;28;20043;-66
2023/08/02 05:13:25;;;;;;;16.45;7.32;;;15.80;99.90;;;;;;4942933;28;20031;-65
2023/08/02 05:15:52;;;;;;;16.17;7.63;;;15.70;99.90;;;;;;4943130;28;20514;-66
2023/08/02 05:18:17;;;;;;;12.93;7.28;;;15.80;99.90;;;;;;4937949;28;20122;-65
2023/08/02 05:20:43;;;;;;;23.70;8.27;;;15.60;99.90;;;;;;4941952;28;20434;-65
2023/08/02 05:23:09;;;;;;;18.20;7.63;;;15.30;99.90;;;;;;4938035;28;20040;-66
2023/08/02 05:25:35;;;;;;;18.30;8.48;;;15.80;99.90;;;;;;4953916;28;20114;-65
2023/08/02 05:28:01;;;;;;;22.25;8.38;;;15.50;99.90;;;;;;4950267;28;20047;-65
2023/08/02 05:30:28;;;;;;;14.23;7.78;;;15.40;99.90;;;;;;4953165;28;20039;-65
2023/08/02 05:32:54;;;;;;;15.55;7.53;;;15.80;99.90;;;;;;4951914;28;20097;-66
2023/08/02 05:35:20;;;;;;;17.45;7.68;;;15.90;99.90;;;;;;4939880;28;20047;-64
2023/08/02 05:37:52;;;;;;;12.75;7.30;;;15.90;99.90;;;;;;4946828;28;20043;-65
2023/08/02 05:40:18;;;;;;;15.60;7.85;;;16.20;99.90;;;;;;4933603;29;20382;-66
2023/08/02 05:42:44;;;;;;;22.20;7.85;;;16.00;99.90;;;;;;4947803;28;20078;-66
2023/08/02 05:45:10;;;;;;;17.38;8.82;;;15.80;99.90;;;;;;4945931;28;20075;-66
2023/08/02 05:47:36;;;;;;;17.83;8.80;;;16.20;99.90;;;;;;4946427;28;20063;-66
2023/08/02 05:50:02;;;;;;;17.05;7.90;;;16.20;99.90;;;;;;4943372;28;20035;-66
2023/08/02 05:52:28;;;;;;;16.30;7.78;;;16.20;99.90;;;;;;4955502;28;20413;-66
2023/08/02 05:54:53;;;;;;;15.20;8.20;;;16.00;99.90;;;;;;4941748;28;20035;-65
2023/08/02 05:57:19;;;;;;;14.48;7.40;;;15.90;99.90;;;;;;4947844;28;20035;-65
2023/08/02 05:59:48;;;;;;;13.52;7.72;;;16.30;99.90;;;;;;4945857;28;20043;-65
2023/08/02 06:02:14;;;;;;;14.55;7.60;;;16.20;99.90;;;;;;4949448;28;20051;-65
2023/08/02 06:04:43;;;;;;;13.27;7.40;;;16.10;99.90;;;;;;4950607;28;20047;-64
2023/08/02 06:07:09;;;;;;;13.27;7.47;;;16.00;99.90;;;;;;4966411;28;20109;-66
2023/08/02 06:09:35;;;;;;;14.20;8.35;;;16.20;99.90;;;;;;4963547;28;20117;-65
2023/08/02 06:12:01;;;;;;;16.40;8.00;;;16.70;99.90;;;;;;4957043;28;20386;-65
2023/08/02 06:14:27;;;;;;;15.10;7.25;;;16.40;99.90;;;;;;4954535;28;20079;-66
2023/08/02 06:16:52;;;;;;;12.48;7.18;;;16.90;99.90;;;;;;4957669;28;20039;-65
2023/08/02 06:19:18;;;;;;;15.05;8.40;;;16.40;99.90;;;;;;4955651;28;20090;-66
2023/08/02 06:21:44;;;;;;;17.98;8.77;;;16.60;99.90;;;;;;4954481;28;20047;-66
2023/08/02 06:24:09;;;;;;;16.10;7.40;;;16.30;99.90;;;;;;4964849;28;20496;-65
2023/08/02 06:26:35;;;;;;;16.13;8.13;;;16.40;99.90;;;;;;4973208;28;20034;-65
2023/08/02 06:29:01;;;;;;;14.10;7.78;;;16.50;99.90;;;;;;4967121;28;20039;-64
2023/08/02 06:31:27;;;;;;;14.55;8.30;;;16.20;99.90;;;;;;4965209;28;20588;-66
2023/08/02 06:33:52;;;;;;;16.30;8.27;;;16.50;99.90;;;;;;4961099;28;20486;-65
2023/08/02 06:36:19;;;;;;;13.18;7.75;;;16.70;99.90;;;;;;4961905;28;20052;-65
2023/08/02 06:38:47;;;;;;;15.65;7.00;;;16.80;99.90;;;;;;4961780;28;20047;-65
2023/08/02 06:41:13;;;;;;;18.90;8.88;;;16.20;99.90;;;;;;4965500;28;20031;-65
2023/08/02 06:43:39;;;;;;;16.27;7.90;;;16.40;99.90;;;;;;4964510;28;20093;-65
2023/08/02 06:46:05;;;;;;;18.73;8.20;;;16.10;99.90;;;;;;4954777;28;20489;-65
2023/08/02 06:48:30;;;;;;;17.17;7.43;;;16.80;99.90;;;;;;4965537;28;20400;-66
2023/08/02 06:50:56;;;;;;;15.52;8.13;;;16.60;99.90;;;;;;4962624;28;20043;-63
2023/08/02 06:53:22;;;;;;;15.30;7.30;;;16.80;99.90;;;;;;4973126;28;20058;-66
2023/08/02 06:55:48;;;;;;;14.55;7.63;;;16.40;99.90;;;;;;4966273;28;20042;-65
2023/08/02 06:58:14;;;;;;;14.98;7.97;;;16.90;99.90;;;;;;4956703;28;20044;-65
2023/08/02 07:00:42;;;;;;;14.40;7.03;;;16.80;99.90;;;;;;4959618;28;20047;-65
2023/08/02 07:03:08;;;;;;;15.00;6.95;;;16.30;99.90;;;;;;4970621;28;20034;-66
2023/08/02 07:05:34;;;;;;;16.90;7.45;;;17.00;99.90;;;;;;4964486;28;20046;-66
2023/08/02 07:08:01;;;;;;;13.30;6.45;;;16.60;99.90;;;;;;4954493;28;20032;-65
2023/08/02 07:10:28;;;;;;;12.65;6.75;;;16.70;99.90;;;;;;4960206;28;20046;-66
2023/08/02 07:12:55;;;;;;;12.00;6.25;;;17.00;99.90;;;;;;4959409;28;20122;-65
2023/08/02 07:15:21;;;;;;;12.15;6.53;;;16.90;99.90;;;;;;4970770;28;20057;-65
2023/08/02 07:17:47;;;;;;;13.63;7.22;;;17.00;99.90;;;;;;4961517;28;20047;-65
2023/08/02 07:20:14;;;;;;;16.42;6.78;;;16.70;99.90;;;;;;4962693;28;20039;-64
2023/08/02 07:22:42;;;;;;;13.88;5.63;;;17.00;99.90;;;;;;4962790;28;20042;-65
2023/08/02 07:25:08;;;;;;;18.13;6.97;;;16.70;99.90;;;;;;4962291;28;20043;-65
2023/08/02 07:27:34;;;;;;;14.43;6.35;;;16.70;99.90;;;;;;4958564;28;20181;-65
2023/08/02 07:30:01;;;;;;;12.13;6.00;;;16.60;99.90;;;;;;4967189;28;20118;-66
2023/08/02 07:32:26;;;;;;;11.27;5.90;;;16.40;99.90;;;;;;4965262;28;20039;-63
2023/08/02 07:34:52;;;;;;;14.60;6.30;;;;;;;;;;4948353;28;20425;-64
2023/08/02 07:37:18;;;;;;;13.45;6.13;;;16.50;99.90;;;;;;4953334;28;20470;-66
2023/08/02 07:39:44;;;;;;;13.23;6.40;;;16.60;99.90;;;;;;4962678;28;20066;-66
2023/08/02 07:42:10;;;;;;;11.73;6.22;;;16.80;99.90;;;;;;4959260;28;20035;-65
2023/08/02 07:44:37;;;;;;;18.05;7.60;;;16.90;99.90;;;;;;4957037;28;20131;-66
2023/08/02 07:47:07;;;;;;;12.10;6.13;;;17.00;99.90;;;;;;4955076;28;20039;-66
2023/08/02 07:49:32;;;;;;;14.18;6.65;;;16.30;99.90;;;;;;4960999;28;20050;-66
2023/08/02 07:51:59;;;;;;;12.98;6.50;;;16.70;99.90;;;;;;4959759;28;20039;-66
2023/08/02 07:54:24;;;;;;;14.27;7.25;;;16.40;99.90;;;;;;4969440;28;20504;-66
2023/08/02 07:56:50;;;;;;;11.73;5.82;;;16.40;99.90;;;;;;4966996;28;20126;-65
2023/08/02 07:59:16;;;;;;;17.50;7.63;;;16.50;99.90;;;;;;4955567;28;20119;-66
2023/08/02 08:01:42;;;;;;;12.18;6.68;;;16.60;99.90;;;;;;4950264;28;20034;-67
2023/08/02 08:04:08;;;;;;;13.55;6.43;;;16.50;99.90;;;;;;4955865;28;20039;-66
2023/08/02 08:06:34;;;;;;;12.65;5.70;;;16.50;99.90;;;;;;4968076;28;20027;-66
2023/08/02 08:09:00;;;;;;;12.90;6.30;;;16.80;99.90;;;;;;4962140;28;20130;-66
2023/08/02 08:11:29;;;;;;;13.52;6.00;;;16.70;99.90;;;;;;4957711;28;20042;-66
2023/08/02 08:13:55;;;;;;;8.77;5.53;;;16.70;99.90;;;;;;4954975;28;20047;-67
2023/08/02 08:16:21;;;;;;;12.25;5.55;;;16.50;99.90;;;;;;4938616;28;20042;-67
2023/08/02 08:18:47;;;;;;;12.65;5.85;;;16.10;99.90;;;;;;4955725;28;20051;-67
2023/08/02 08:21:12;;;;;;;12.82;5.22;;;16.50;99.90;;;;;;4955233;28;20405;-66
2023/08/02 08:23:39;;;;;;;11.80;5.50;;;16.00;99.90;;;;;;4958174;28;20035;-66
2023/08/02 08:26:04;;;;;;;13.15;5.43;;;16.40;99.90;;;;;;4945121;28;20102;-66
2023/08/02 08:28:30;;;;;;;9.80;4.80;;;16.00;99.90;;;;;;4963454;28;20118;-66
2023/08/02 08:31:03;;;;;;;9.60;4.72;;;16.40;99.90;;;;;;4939187;28;20039;-65
2023/08/02 08:33:31;;;;;;;11.55;4.55;;;16.10;99.90;;;;;;4956807;28;20030;-66
2023/08/02 08:35:57;;;;;;;9.93;5.03;;;16.10;99.90;;;;;;4947452;28;20050;-66
2023/08/02 08:38:22;;;;;;;10.40;4.38;;;15.80;99.90;;;;;;4957125;28;20118;-65
2023/08/02 08:40:54;;;;;;;8.02;4.20;;;15.80;99.90;;;;;;5028337;23;20132;-63
2023/08/02 08:43:25;;;;;;;11.93;5.38;;;16.10;99.90;;;;;;4964811;28;20047;-63
2023/08/02 08:45:51;;;;;;;8.68;3.88;;;16.30;99.90;;;;;;4952764;28;20058;-63
2023/08/02 08:48:18;;;;;;;9.20;4.40;;;16.20;99.90;;;;;;4938979;28;20039;-63
2023/08/02 08:50:46;;;;;;;8.57;4.53;;;16.00;99.90;;;;;;4944790;28;20079;-63
2023/08/02 08:55:50;;;;;;;8.85;3.88;;;16.30;99.90;;;;;;4996824;28;20342;-63
2023/08/02 08:58:16;;;;;;;9.32;4.38;;;16.10;99.90;;;;;;4992800;28;20568;-65
2023/08/02 09:00:44;;;;;;;8.60;4.47;;;16.10;99.90;;;;;;4987301;28;20117;-65
2023/08/02 09:03:12;;;;;;;10.65;4.75;;;;;;;;;;4990849;28;20046;-65
2023/08/02 09:05:40;;;;;;;8.52;3.70;;;16.60;99.90;;;;;;4996854;28;20073;-65
2023/08/02 09:08:06;;;;;;;8.90;4.10;;;15.80;99.90;;;;;;4991922;28;20046;-65
2023/08/02 09:10:35;;;;;;;9.30;4.28;;;16.10;99.90;;;;;;4987699;28;20043;-66
2023/08/02 09:13:00;;;;;;;7.88;4.38;;;15.90;99.90;;;;;;4984457;28;20039;-65
2023/08/02 09:15:26;;;;;;;9.00;3.95;;;16.40;99.90;;;;;;4986939;28;20038;-66
2023/08/02 09:17:54;;;;;;;8.55;4.30;;;16.40;99.90;;;;;;4990858;28;20070;-65
2023/08/02 09:20:22;;;;;;;10.32;5.22;;;16.40;99.90;;;;;;5005684;28;20038;-65
2023/08/02 09:22:48;;;;;;;7.93;4.78;;;16.20;99.90;;;;;;4990566;28;20038;-64
2023/08/02 09:25:24;;;;;;;10.35;5.22;;;16.10;99.90;;;;;;4987078;28;20081;-65
2023/08/02 09:27:51;;;;;;;10.63;5.97;;;16.30;99.90;;;;;;4988451;28;20038;-64
2023/08/02 09:30:32;;;;;;;8.15;5.45;;;15.80;99.90;;;;;;4978695;28;20066;-64
2023/08/02 09:33:03;;;;;;;9.00;5.57;;;16.30;99.90;;;;;;4987569;28;20204;-64
2023/08/02 09:35:51;;;;;;;13.48;6.57;;;16.10;99.90;;;;;;4982982;28;20039;-64
2023/08/02 09:38:17;;;;;;;8.68;6.07;;;16.50;99.90;;;;;;4977067;28;20492;-65
2023/08/02 09:40:47;;;;;;;10.48;6.28;;;16.10;99.90;;;;;;4982097;28;20077;-64
2023/08/02 09:43:14;;;;;;;10.88;6.75;;;16.10;99.90;;;;;;4992966;28;20057;-64
2023/08/02 09:45:40;;;;;;;10.07;6.05;;;16.40;99.90;;;;;;4988877;28;20043;-65
2023/08/02 09:48:06;;;;;;;10.57;7.05;;;16.50;99.90;;;;;;4993222;28;20302;-64
2023/08/02 09:50:33;;;;;;;11.00;6.53;;;16.40;99.90;;;;;;4981745;28;20039;-64
2023/08/02 09:53:13;;;;;;;10.02;6.88;;;16.10;99.90;;;;;;4996760;28;20526;-65
2023/08/02 09:55:41;;;;;;;11.43;7.90;;;16.50;99.90;;;;;;4999981;28;20050;-64
2023/08/02 09:58:07;;;;;;;9.10;5.97;;;16.50;99.90;;;;;;4985836;28;20105;-64
2023/08/02 10:00:33;;;;;;;11.40;6.82;;;16.60;99.90;;;;;;4997262;28;20038;-65
2023/08/02 10:02:59;;;;;;;11.13;7.22;;;16.70;99.90;;;;;;4994706;28;20514;-64
2023/08/02 10:05:26;;;;;;;11.60;7.07;;;16.40;99.90;;;;;;4999738;28;20042;-63
2023/08/02 10:07:53;;;;;;;10.75;6.55;;;16.50;99.90;;;;;;4995491;28;20042;-63
2023/08/02 10:10:24;;;;;;;10.15;6.47;;;16.50;99.90;;;;;;4997841;28;20620;-63
2023/08/02 10:13:06;;;;;;;11.00;6.75;;;16.70;99.90;;;;;;4988328;28;20404;-62
2023/08/02 10:15:32;;;;;;;9.82;6.35;;;16.70;99.90;;;;;;4998045;28;20037;-63
2023/08/02 10:17:59;;;;;;;12.35;6.60;;;16.90;99.90;;;;;;4990841;28;20630;-63
2023/08/02 10:20:25;;;;;;;8.75;6.07;;;16.90;99.90;;;;;;4984190;28;20038;-62
2023/08/02 10:22:51;;;;;;;7.80;5.90;;;16.80;99.90;;;;;;4978545;28;20042;-62
2023/08/02 10:25:19;;;;;;;7.65;5.78;;;16.80;99.90;;;;;;4984806;28;20444;-63
2023/08/02 10:27:46;;;;;;;7.70;5.20;;;17.00;99.90;;;;;;5003441;28;20717;-63
2023/08/02 10:30:12;;;;;;;8.63;5.15;;;16.40;99.90;;;;;;4981367;28;20051;-63
2023/08/02 10:32:38;;;;;;;7.68;4.85;;;17.00;99.90;;;;;;4990563;28;20043;-62
2023/08/02 10:35:04;;;;;;;7.70;4.70;;;17.10;99.90;;;;;;4985350;28;20102;-63
2023/08/02 10:37:56;;;;;;;7.07;3.97;;;16.50;99.90;;;;;;4993359;28;20461;-63
2023/08/02 10:40:25;;;;;;;7.22;4.60;;;16.80;99.90;;;;;;4985376;28;20046;-62
2023/08/02 10:43:05;;;;;;;7.47;4.53;;;17.00;99.90;;;;;;4995171;28;20042;-63
2023/08/02 10:45:31;;;;;;;7.03;4.20;;;16.90;99.90;;;;;;4972833;28;20039;-63
2023/08/02 10:48:25;;;;;;;6.30;4.00;;;16.80;99.90;;;;;;4987731;28;20041;-63
2023/08/02 10:50:52;;;;;;;7.68;3.95;;;16.80;99.90;;;;;;4999470;28;20111;-63
2023/08/02 10:53:18;;;;;;;5.90;3.72;;;16.80;99.90;;;;;;4995173;28;20033;-63
2023/08/02 10:56:10;;;;;;;6.75;4.18;;;16.30;99.90;;;;;;4998210;28;20423;-63
2023/08/02 10:58:52;;;;;;;5.88;3.50;;;16.80;99.90;;;;;;4995236;28;20046;-62
2023/08/02 11:01:19;;;;;;;6.60;3.33;;;16.40;99.90;;;;;;4997572;28;20496;-62
2023/08/02 11:03:45;;;;;;;6.38;3.50;;;16.80;99.90;;;;;;4995766;28;20053;-63
2023/08/02 11:06:24;;;;;;;8.80;3.50;;;16.80;99.90;;;;;;4991681;28;20416;-63
2023/08/02 11:08:50;;;;;;;6.57;3.45;;;16.90;99.90;;;;;;4986857;28;20048;-62
2023/08/02 11:11:26;;;;;;;5.18;2.67;;;16.60;99.90;;;;;;4991872;28;20046;-62
2023/08/02 11:13:51;;;;;;;5.32;2.90;;;16.80;99.90;;;;;;5001986;28;20034;-63
2023/08/02 11:16:17;;;;;;;5.18;2.92;;;17.00;99.90;;;;;;4991430;28;20038;-63
2023/08/02 11:18:43;;;;;;;5.10;2.80;;;16.60;99.90;;;;;;4990160;28;20042;-63
2023/08/02 11:21:13;;;;;;;5.35;2.35;;;;;;;;;;4991766;28;20038;-62
2023/08/02 11:23:39;;;;;;;6.10;3.35;;;17.10;99.90;;;;;;4982511;28;20050;-63
2023/08/02 11:26:09;;;;;;;5.63;2.80;;;17.10;1.00;;;;;;4991277;28;20081;-62
2023/08/02 11:28:42;;;;;;;5.18;2.70;;;17.30;1.00;;;;;;4991265;28;20026;-63
2023/08/02 11:31:11;;;;;;;4.97;2.38;;;17.50;1.00;;;;;;4991573;28;20471;-63
2023/08/02 11:33:39;;;;;;;6.30;2.40;;;17.40;1.00;;;;;;4990577;28;20472;-62
2023/08/02 11:36:05;;;;;;;4.85;2.50;;;17.50;99.90;;;;;;4991555;28;20042;-61
2023/08/02 11:38:31;;;;;;;6.10;2.42;;;17.80;99.90;;;;;;4981311;28;20046;-62
2023/08/02 11:40:58;;;;;;;4.35;2.10;;;18.30;99.90;;;;;;4990528;28;20053;-63
2023/08/02 11:43:34;;;;;;;5.47;2.83;;;18.60;99.90;;;;;;4990764;28;20065;-63
2023/08/02 11:46:00;;;;;;;4.97;2.58;;;18.40;99.90;;;;;;4998774;28;20046;-63
2023/08/02 11:48:26;;;;;;;4.75;2.50;;;18.70;99.90;;;;;;4990905;28;20061;-63
2023/08/02 11:50:54;;;;;;;5.30;2.80;;;18.70;99.90;;;;;;4987746;28;20411;-63
2023/08/02 11:53:20;;;;;;;5.05;2.80;;;18.80;99.90;;;;;;4981556;28;20061;-63
2023/08/02 11:55:46;;;;;;;6.30;2.92;;;18.60;99.90;;;;;;4990509;28;20050;-62
2023/08/02 11:58:12;;;;;;;5.80;2.92;;;18.80;99.90;;;;;;4989525;28;20579;-63
2023/08/02 12:00:38;;;;;;;5.60;3.53;;;18.80;99.90;;;;;;4983635;28;20132;-63
2023/08/02 12:03:12;;;;;;;6.00;3.55;;;18.90;99.90;;;;;;4995474;28;20050;-62
2023/08/02 12:05:38;;;;;;;6.43;3.80;;;18.40;99.90;;;;;;4991691;28;20048;-64
2023/08/02 12:08:11;;;;;;;6.18;3.97;;;18.80;99.90;;;;;;4989284;28;20041;-63
2023/08/02 12:10:41;;;;;;;6.40;4.70;;;18.80;99.90;;;;;;4991231;28;20088;-61
2023/08/02 12:13:14;;;;;;;7.75;4.45;;;19.00;99.90;;;;;;4973373;28;20254;-61
2023/08/02 12:16:01;;;;;;;6.00;3.92;;;18.40;99.90;;;;;;4995936;28;20042;-63
2023/08/02 12:18:27;;;;;;;6.43;4.10;;;18.80;99.90;;;;;;4992491;28;20431;-63
2023/08/02 12:20:53;;;;;;;6.32;3.85;;;18.70;99.90;;;;;;4995869;28;20044;-62
2023/08/02 12:23:33;;;;;;;5.82;4.03;;;18.90;99.90;;;;;;4993428;28;20046;-63
2023/08/02 12:25:59;;;;;;;5.93;4.03;;;19.30;99.90;;;;;;4995762;28;20042;-62
2023/08/02 12:28:25;;;;;;;5.40;3.42;;;19.80;99.90;;;;;;4991459;28;20039;-63
2023/08/02 12:31:03;;;;;;;5.10;3.08;;;20.10;99.90;;;;;;4997090;28;20060;-63
2023/08/02 12:33:29;;;;;;;5.00;3.03;;;20.50;99.90;;;;;;4997727;28;20026;-64
2023/08/02 12:35:54;;;;;;;5.45;2.90;;;20.80;99.90;;;;;;4993762;28;20045;-63
2023/08/02 12:38:20;;;;;;;5.53;2.85;;;21.50;99.90;;;;;;4991646;28;20053;-63
2023/08/02 12:40:46;;;;;;;5.45;3.28;;;20.90;99.90;;;;;;4992129;28;20034;-63
2023/08/02 12:43:12;;;;;;;5.57;3.20;;;20.90;49.80;;;;;;4983704;28;20042;-63
2023/08/02 12:45:37;;;;;;;5.72;3.03;;;22.00;1.00;;;;;;4987566;28;20389;-63
2023/08/02 12:48:03;;;;;;;5.70;2.63;;;21.90;1.00;;;;;;4994213;28;20041;-63
2023/08/02 12:50:29;;;;;;;6.10;2.40;;;23.20;99.90;;;;;;4990839;28;20034;-63